.
WxDataArchive / Data Records for 2012-05-10
2012-05-09 May 2012 2012-05-11

Data Records for Thursday, 10 May 2012

Time	Temp	Chill	HIndex	Humid	Dewpt	 Wind 	HiWind	WindDir	Rain 	Barom 
-----	----	-----	------	-----	-----	------	------	-------	-----	----- 
00:00	48.6	48.6	48.6	65	37.4	0	2	315	0.00	29.889 
00:05	48.5	48.5	48.5	65	37.3	0	1	315	0.00	29.889 
00:10	48.3	48.3	48.3	65	37.1	0	1	315	0.00	29.889 
00:15	48.2	48.2	48.2	65	37.0	0	1	315	0.00	29.886 
00:20	48.2	48.2	48.2	65	37.0	0	2	315	0.00	29.886 
00:25	48.0	48.0	48.0	65	36.8	0	1	315	0.00	29.886 
00:30	47.9	47.9	47.9	66	37.1	0	3	315	0.00	29.887 
00:35	47.7	47.7	47.7	66	36.9	0	1	315	0.00	29.887 
00:40	47.6	47.6	47.6	66	36.8	0	1	315	0.00	29.887 
00:45	47.6	47.6	47.6	66	36.8	0	1	315	0.00	29.888 
00:50	47.4	47.4	47.4	66	36.6	0	2	315	0.00	29.888 
00:55	47.4	47.4	47.4	66	36.6	0	1	315	0.00	29.888 
01:00	47.3	47.3	47.3	67	36.9	0	2	315	0.00	29.890 
01:05	47.1	47.1	47.1	67	36.7	0	1	315	0.00	29.890 
01:10	47.1	47.1	47.1	67	36.7	0	1	315	0.00	29.890 
01:15	47.1	47.1	47.1	67	36.7	0	2	315	0.00	29.891 
01:20	47.0	47.0	47.0	67	36.6	0	1	315	0.00	29.891 
01:25	47.0	47.0	47.0	67	36.6	0	1	315	0.00	29.891 
01:30	47.0	47.0	47.0	67	36.6	0	1	315	0.00	29.891 
01:35	46.8	46.8	46.8	67	36.4	0	1	315	0.00	29.891 
01:40	46.8	46.8	46.8	67	36.4	0	0	---	0.00	29.891 
01:45	46.5	46.5	46.5	68	36.5	0	0	---	0.00	29.889 
01:50	46.4	46.4	46.4	68	36.4	0	0	---	0.00	29.889 
01:55	46.2	46.2	46.2	69	36.6	0	1	315	0.00	29.889 
02:00	46.1	46.1	46.1	69	36.5	0	0	---	0.00	29.888 
02:05	46.0	46.0	46.0	69	36.4	0	0	---	0.00	29.888 
02:10	45.8	45.8	45.8	69	36.2	0	0	---	0.00	29.888 
02:15	45.7	45.7	45.7	70	36.5	0	0	---	0.00	29.879 
02:20	45.5	45.5	45.5	70	36.3	0	0	---	0.00	29.879 
02:25	45.4	45.4	45.4	71	36.6	0	0	---	0.00	29.879 
02:30	45.4	45.4	45.4	71	36.6	0	0	---	0.00	29.884 
02:35	45.2	45.2	45.2	72	36.7	0	1	315	0.00	29.884 
02:40	44.9	44.9	44.9	72	36.4	0	1	315	0.00	29.884 
02:45	44.9	44.9	44.9	72	36.4	0	1	315	0.00	29.882 
02:50	44.9	44.9	44.9	72	36.4	0	0	---	0.00	29.882 
02:55	44.9	44.9	44.9	73	36.8	0	1	315	0.00	29.882 
03:00	44.8	44.8	44.8	73	36.7	0	1	315	0.00	29.882 
03:05	44.8	44.8	44.8	73	36.7	0	1	315	0.00	29.882 
03:10	44.6	44.6	44.6	73	36.5	0	1	315	0.00	29.882 
03:15	44.6	44.6	44.6	74	36.8	0	1	315	0.00	29.884 
03:20	44.5	44.5	44.5	74	36.7	0	1	315	0.00	29.884 
03:25	44.3	44.3	44.3	74	36.5	0	0	---	0.00	29.884 
03:30	44.3	44.3	44.3	74	36.5	0	1	315	0.00	29.886 
03:35	44.2	44.2	44.2	75	36.8	0	1	315	0.00	29.886 
03:40	44.1	44.1	44.1	75	36.7	0	0	---	0.00	29.886 
03:45	44.1	44.1	44.1	76	37.0	0	1	315	0.00	29.887 
03:50	44.1	44.1	44.1	76	37.0	0	0	---	0.00	29.887 
03:55	43.9	43.9	43.9	76	36.8	0	1	315	0.00	29.887 
04:00	43.9	43.9	43.9	76	36.8	0	0	---	0.00	29.888 
04:05	43.9	43.9	43.9	76	36.8	0	0	---	0.00	29.888 
04:10	43.8	43.8	43.8	76	36.7	0	0	---	0.00	29.888 
04:15	43.6	43.6	43.6	76	36.5	0	1	315	0.00	29.890 
04:20	43.6	43.6	43.6	77	36.9	0	0	---	0.00	29.890 
04:25	43.5	43.5	43.5	77	36.8	0	0	---	0.00	29.890 
04:30	43.3	43.3	43.3	77	36.6	0	1	315	0.00	29.891 
04:35	43.3	43.3	43.3	77	36.6	0	1	315	0.00	29.891 
04:40	43.3	43.3	43.3	77	36.6	0	1	315	0.00	29.891 
04:45	43.2	43.2	43.2	77	36.5	0	1	315	0.00	29.892 
04:50	43.1	43.1	43.1	78	36.7	0	1	315	0.00	29.892 
04:55	43.1	43.1	43.1	78	36.7	0	1	315	0.00	29.892 
05:00	42.9	42.9	42.9	78	36.5	0	1	315	0.00	29.893 
05:05	42.8	42.8	42.8	78	36.4	0	1	315	0.00	29.893 
05:10	42.6	42.6	42.6	78	36.2	0	1	315	0.00	29.893 
05:15	42.5	42.5	42.5	79	36.5	0	0	---	0.00	29.898 
05:20	42.3	42.3	42.3	79	36.3	0	1	315	0.00	29.898 
05:25	42.2	42.2	42.2	79	36.2	0	1	315	0.00	29.898 
05:30	42.1	42.1	42.1	80	36.4	0	1	315	0.00	29.896 
05:35	41.9	41.9	41.9	80	36.2	0	1	315	0.00	29.896 
05:40	41.9	41.9	41.9	80	36.2	0	1	315	0.00	29.896 
05:45	41.8	41.8	41.8	81	36.4	0	1	315	0.00	29.899 
05:50	41.8	41.8	41.8	81	36.4	0	0	---	0.00	29.899 
05:55	41.8	41.8	41.8	81	36.4	0	0	---	0.00	29.899 
06:00	41.6	41.6	41.6	81	36.2	0	0	---	0.00	29.906 
06:05	41.6	41.6	41.6	81	36.2	0	0	---	0.00	29.906 
06:10	41.6	41.6	41.6	82	36.5	0	0	---	0.00	29.906 
06:15	41.5	41.5	41.5	82	36.4	0	0	---	0.00	29.910 
06:20	41.3	41.3	41.3	82	36.2	0	0	---	0.00	29.910 
06:25	41.3	41.3	41.3	82	36.2	0	0	---	0.00	29.910 
06:30	41.2	41.2	41.2	82	36.1	0	0	---	0.00	29.913 
06:35	41.1	41.1	41.1	82	36.0	0	1	315	0.00	29.913 
06:40	41.1	41.1	41.1	82	36.0	0	1	315	0.00	29.913 
06:45	41.1	41.1	41.1	83	36.3	0	0	---	0.00	29.915 
06:50	41.1	41.1	41.1	83	36.3	0	0	---	0.00	29.915 
06:55	41.1	41.1	41.1	83	36.3	0	0	---	0.00	29.915 
07:00	41.2	41.2	41.2	83	36.4	0	0	---	0.00	29.916 
07:05	41.2	41.2	41.2	83	36.4	0	1	315	0.00	29.916 
07:10	41.3	41.3	41.3	83	36.5	0	2	315	0.00	29.916 
07:15	41.6	41.6	41.6	83	36.8	0	0	---	0.00	29.924 
07:20	41.9	41.9	41.9	83	37.1	0	0	---	0.00	29.924 
07:25	42.2	42.2	42.2	83	37.4	0	1	315	0.00	29.924 
07:30	42.5	42.5	42.5	82	37.4	0	1	315	0.00	29.928 
07:35	42.9	42.9	42.9	82	37.8	0	2	315	0.00	29.928 
07:40	43.3	43.3	43.3	81	37.9	0	2	315	0.00	29.928 
07:45	43.9	43.9	43.9	80	38.1	0	2	315	0.00	29.933 
07:50	44.3	44.3	44.3	79	38.2	0	2	315	0.00	29.933 
07:55	44.9	44.9	44.9	77	38.1	0	3	315	0.00	29.933 
08:00	45.4	45.4	45.4	76	38.3	0	1	315	0.00	29.941 
08:05	45.8	45.8	45.8	74	38.0	1	3	315	0.00	29.941 
08:10	46.2	46.2	46.2	73	38.0	1	3	315	0.00	29.941 
08:15	46.7	46.7	46.7	71	37.8	0	2	315	0.00	29.946 
08:20	47.3	47.3	47.3	70	38.0	0	2	315	0.00	29.946 
08:25	47.7	47.7	47.7	68	37.7	0	3	315	0.00	29.946 
08:30	48.0	48.0	48.0	67	37.6	0	2	315	0.00	29.952 
08:35	48.3	48.3	48.3	65	37.1	1	2	315	0.00	29.952 
08:40	48.6	48.6	48.6	65	37.4	1	4	315	0.00	29.952 
08:45	48.9	48.9	48.9	64	37.3	1	4	315	0.00	29.954 
08:50	49.1	49.1	49.1	62	36.6	1	3	270	0.00	29.954 
08:55	49.6	49.6	49.6	63	37.5	0	3	270	0.00	29.954 
09:00	50.4	50.4	50.4	62	37.9	0	2	270	0.00	29.954 
09:05	50.8	50.8	50.8	59	37.0	1	4	270	0.00	29.954 
09:10	51.1	51.1	51.1	61	38.1	0	2	270	0.00	29.954 
09:15	51.7	51.7	51.7	59	37.8	1	3	270	0.00	29.955 
09:20	51.9	51.9	51.9	56	36.7	1	3	270	0.00	29.955 
09:25	52.3	52.3	52.3	57	37.5	0	1	270	0.00	29.955 
09:30	52.9	52.9	52.9	54	36.7	1	4	270	0.00	29.957 
09:35	53.3	53.3	53.3	51	35.6	1	3	270	0.00	29.957 
09:40	53.5	53.5	53.5	50	35.3	0	3	270	0.00	29.957 
09:45	53.5	53.5	53.5	50	35.3	2	4	315	0.00	29.958 
09:50	53.9	53.9	53.9	52	36.7	1	3	315	0.00	29.958 
09:55	54.2	54.2	54.2	51	36.5	1	3	315	0.00	29.958 
10:00	54.7	54.7	54.7	47	34.9	2	4	248	0.00	29.959 
10:05	54.7	54.7	54.7	45	33.8	1	4	270	0.00	29.959 
10:10	54.7	54.7	54.7	45	33.8	2	3	315	0.00	29.959 
10:15	55.1	55.1	55.1	48	35.8	1	3	315	0.00	29.965 
10:20	55.6	55.6	55.6	48	36.2	1	3	315	0.00	29.965 
10:25	56.2	56.2	56.2	46	35.7	1	4	315	0.00	29.965 
10:30	56.5	56.5	56.5	47	36.5	1	3	292	0.00	29.966 
10:35	56.7	56.7	56.7	44	35.0	1	4	292	0.00	29.966 
10:40	57.0	57.0	57.0	40	32.9	1	5	270	0.00	29.966 
10:45	57.2	57.2	57.2	43	34.9	1	4	270	0.00	29.969 
10:50	57.6	57.6	57.6	42	34.7	1	4	315	0.00	29.969 
10:55	57.6	57.6	57.6	36	30.8	2	4	338	0.00	29.969 
11:00	57.5	57.5	57.5	35	30.1	2	6	292	0.00	29.969 
11:05	57.8	57.8	57.8	40	33.6	2	6	270	0.00	29.969 
11:10	57.8	57.8	57.8	37	31.7	2	5	292	0.00	29.969 
11:15	58.1	58.1	58.1	38	32.6	2	5	292	0.00	29.971 
11:20	58.3	58.3	58.3	37	32.1	2	4	270	0.00	29.971 
11:25	58.7	58.7	58.7	40	34.4	1	3	292	0.00	29.971 
11:30	58.7	58.7	58.7	37	32.5	3	6	292	0.00	29.970 
11:35	59.0	59.0	59.0	42	35.9	1	4	292	0.00	29.970 
11:40	59.3	59.3	59.3	36	32.4	2	5	270	0.00	29.970 
11:45	59.3	59.3	59.3	33	30.2	2	5	292	0.00	29.971 
11:50	59.5	59.5	59.5	34	31.1	1	4	315	0.00	29.971 
11:55	59.9	59.9	59.9	34	31.5	1	5	315	0.00	29.971 
12:00	59.8	59.8	59.8	34	31.4	2	5	292	0.00	29.971 
12:05	60.1	60.1	60.1	34	31.6	1	5	292	0.00	29.971 
12:10	60.1	60.1	60.1	33	30.9	1	6	0	0.00	29.971 
12:15	60.9	60.9	60.9	36	33.8	1	4	315	0.00	29.969 
12:20	60.9	60.9	60.9	35	33.1	1	6	270	0.00	29.969 
12:25	61.0	61.0	61.0	32	30.9	1	3	270	0.00	29.969 
12:30	61.2	61.2	61.2	31	30.3	2	5	315	0.00	29.970 
12:35	61.0	61.0	61.0	35	33.2	2	6	315	0.00	29.970 
12:40	61.0	61.0	61.0	34	32.4	2	6	270	0.00	29.970 
12:45	61.0	61.0	61.0	33	31.7	2	5	270	0.00	29.969 
12:50	61.2	61.2	61.2	34	32.6	2	4	270	0.00	29.969 
12:55	61.8	61.8	61.8	41	37.8	1	2	315	0.00	29.969 
13:00	62.4	62.4	62.4	35	34.4	0	2	315	0.00	29.967 
13:05	62.1	62.1	62.1	28	28.6	2	6	292	0.00	29.967 
13:10	61.8	61.8	61.8	28	28.4	2	6	0	0.00	29.967 
13:15	61.8	61.8	61.8	30	30.0	2	6	270	0.00	29.967 
13:20	61.8	61.8	61.8	29	29.2	2	4	315	0.00	29.967 
13:25	61.8	61.8	61.8	31	30.8	2	5	292	0.00	29.967 
13:30	62.1	62.1	62.1	32	31.9	1	3	248	0.00	29.960 
13:35	62.4	62.4	62.4	33	32.9	1	5	270	0.00	29.960 
13:40	62.7	62.7	62.7	30	30.8	1	3	315	0.00	29.960 
13:45	62.9	62.9	62.9	27	28.4	1	4	292	0.00	29.956 
13:50	62.9	62.9	62.9	35	34.8	1	3	315	0.00	29.956 
13:55	63.1	63.1	63.1	28	29.5	1	5	315	0.00	29.956 
14:00	63.7	63.7	63.7	30	31.7	1	4	112	0.00	29.952 
14:05	64.0	64.0	64.0	28	30.2	1	3	315	0.00	29.952 
14:10	63.9	63.9	63.9	26	28.3	2	5	270	0.00	29.952 
14:15	63.7	63.7	63.7	27	29.1	1	2	292	0.00	29.954 
14:20	64.0	64.0	64.0	31	32.8	1	3	292	0.00	29.954 
14:25	64.0	64.0	64.0	31	32.8	1	3	45	0.00	29.954 
14:30	64.2	64.2	64.2	28	30.4	1	5	68	0.00	29.954 
14:35	64.0	64.0	64.0	27	29.4	2	5	270	0.00	29.954 
14:40	64.0	64.0	64.0	30	31.9	1	3	270	0.00	29.954 
14:45	64.2	64.2	64.2	28	30.4	0	2	270	0.00	29.953 
14:50	64.3	64.3	64.3	28	30.5	1	4	270	0.00	29.953 
14:55	64.5	64.5	64.5	31	33.2	1	4	292	0.00	29.953 
15:00	64.7	64.7	64.7	28	30.8	2	6	315	0.00	29.950 
15:05	64.5	64.5	64.5	27	29.8	1	5	292	0.00	29.950 
15:10	64.3	64.3	64.3	26	28.7	1	4	292	0.00	29.950 
15:15	64.7	64.7	64.7	28	30.8	0	3	292	0.00	29.951 
15:20	64.5	64.5	64.5	31	33.2	1	3	315	0.00	29.951 
15:25	64.3	64.3	64.3	26	28.7	1	5	315	0.00	29.951 
15:30	64.5	64.5	64.5	27	29.8	3	6	270	0.00	29.951 
15:35	64.3	64.3	64.3	26	28.7	3	7	270	0.00	29.951 
15:40	64.7	64.7	64.7	28	30.8	1	4	292	0.00	29.951 
15:45	65.0	65.0	65.0	29	32.0	1	2	292	0.00	29.950 
15:50	65.0	65.0	65.0	25	28.3	2	4	315	0.00	29.950 
15:55	65.0	65.0	65.0	26	29.3	1	4	292	0.00	29.950 
16:00	65.2	65.2	65.2	25	28.5	2	6	315	0.00	29.950 
16:05	65.3	65.3	65.3	25	28.6	2	4	292	0.00	29.950 
16:10	65.3	65.3	65.3	26	29.5	2	4	270	0.00	29.950 
16:15	65.0	65.0	65.0	27	30.2	1	4	270	0.00	29.951 
16:20	65.3	65.3	65.3	29	32.2	1	2	270	0.00	29.951 
16:25	65.5	65.5	65.5	30	33.2	1	7	270	0.00	29.951 
16:30	65.5	65.5	65.5	26	29.7	1	4	270	0.00	29.950 
16:35	65.6	65.6	65.6	26	29.8	1	4	292	0.00	29.950 
16:40	65.6	65.6	65.6	25	28.8	1	3	292	0.00	29.950 
16:45	65.5	65.5	65.5	26	29.7	1	4	292	0.00	29.952 
16:50	65.5	65.5	65.5	27	30.6	1	3	292	0.00	29.952 
16:55	65.6	65.6	65.6	25	28.8	1	3	0	0.00	29.952 
17:00	65.6	65.6	65.6	26	29.8	1	3	270	0.00	29.952 
17:05	65.6	65.6	65.6	24	27.8	2	5	270	0.00	29.952 
17:10	65.8	65.8	65.8	27	30.9	1	3	270	0.00	29.952 
17:15	66.0	66.0	66.0	27	31.1	0	2	270	0.00	29.952 
17:20	66.1	66.1	66.1	25	29.3	2	7	270	0.00	29.952 
17:25	65.8	65.8	65.8	25	29.0	1	4	270	0.00	29.952 
17:30	65.6	65.6	65.6	27	30.7	1	5	292	0.00	29.953 
17:35	65.6	65.6	65.6	27	30.7	1	4	315	0.00	29.953 
17:40	65.6	65.6	65.6	27	30.7	1	4	292	0.00	29.953 
17:45	65.6	65.6	65.6	27	30.7	1	4	292	0.00	29.955 
17:50	65.6	65.6	65.6	27	30.7	1	4	315	0.00	29.955 
17:55	65.6	65.6	65.6	26	29.8	2	4	315	0.00	29.955 
18:00	65.5	65.5	65.5	26	29.7	0	2	315	0.00	29.955 
18:05	65.3	65.3	65.3	27	30.5	0	2	315	0.00	29.955 
18:10	65.2	65.2	65.2	28	31.3	0	3	315	0.00	29.955 
18:15	65.3	65.3	65.3	27	30.5	2	5	270	0.00	29.964 
18:20	65.3	65.3	65.3	27	30.5	0	2	270	0.00	29.964 
18:25	65.3	65.3	65.3	27	30.5	1	4	270	0.00	29.964 
18:30	65.2	65.2	65.2	28	31.3	0	2	270	0.00	29.963 
18:35	65.2	65.2	65.2	29	32.1	0	2	270	0.00	29.963 
18:40	65.2	65.2	65.2	27	30.4	2	5	292	0.00	29.963 
18:45	65.0	65.0	65.0	26	29.3	1	3	292	0.00	29.962 
18:50	64.8	64.8	64.8	28	30.9	0	2	292	0.00	29.962 
18:55	64.8	64.8	64.8	26	29.1	2	5	292	0.00	29.962 
19:00	64.7	64.7	64.7	27	29.9	2	6	270	0.00	29.963 
19:05	64.7	64.7	64.7	27	29.9	1	5	270	0.00	29.963 
19:10	64.5	64.5	64.5	27	29.8	0	1	270	0.00	29.963 
19:15	64.3	64.3	64.3	29	31.4	0	1	270	0.00	29.965 
19:20	64.3	64.3	64.3	27	29.6	1	3	270	0.00	29.965 
19:25	64.3	64.3	64.3	27	29.6	1	3	270	0.00	29.965 
19:30	64.3	64.3	64.3	28	30.5	1	3	270	0.00	29.968 
19:35	64.2	64.2	64.2	28	30.4	0	1	270	0.00	29.968 
19:40	64.2	64.2	64.2	27	29.5	1	3	270	0.00	29.968 
19:45	64.2	64.2	64.2	28	30.4	0	1	270	0.00	29.968 
19:50	63.9	63.9	63.9	28	30.2	0	1	270	0.00	29.968 
19:55	63.7	63.7	63.7	29	30.8	0	1	270	0.00	29.968 
20:00	63.5	63.5	63.5	28	29.8	0	1	270	0.00	29.968 
20:05	63.4	63.4	63.4	30	31.4	0	0	---	0.00	29.968 
20:10	63.1	63.1	63.1	28	29.5	0	1	270	0.00	29.968 
20:15	62.7	62.7	62.7	29	30.0	0	1	270	0.00	29.966 
20:20	62.3	62.3	62.3	31	31.3	0	0	---	0.00	29.966 
20:25	61.8	61.8	61.8	31	30.8	0	0	---	0.00	29.966 
20:30	61.5	61.5	61.5	31	30.6	0	0	---	0.00	29.968 
20:35	61.0	61.0	61.0	31	30.2	0	0	---	0.00	29.968 
20:40	60.5	60.5	60.5	32	30.5	0	0	---	0.00	29.968 
20:45	60.1	60.1	60.1	33	30.9	0	0	---	0.00	29.974 
20:50	59.5	59.5	59.5	34	31.1	0	0	---	0.00	29.974 
20:55	59.0	59.0	59.0	36	32.1	0	0	---	0.00	29.974 
21:00	58.4	58.4	58.4	38	32.9	0	0	---	0.00	29.978 
21:05	58.0	58.0	58.0	39	33.2	0	0	---	0.00	29.978 
21:10	57.3	57.3	57.3	42	34.4	0	0	---	0.00	29.978 
21:15	56.6	56.6	56.6	42	33.8	0	0	---	0.00	29.978 
21:20	56.0	56.0	56.0	45	35.0	0	0	---	0.00	29.978 
21:25	55.6	55.6	55.6	47	35.7	0	0	---	0.00	29.978 
21:30	55.1	55.1	55.1	48	35.8	0	0	---	0.00	29.982 
21:35	54.7	54.7	54.7	49	35.9	0	0	---	0.00	29.982 
21:40	54.4	54.4	54.4	50	36.2	0	0	---	0.00	29.982 
21:45	53.9	53.9	53.9	51	36.2	0	0	---	0.00	29.988 
21:50	53.5	53.5	53.5	52	36.3	0	0	---	0.00	29.988 
21:55	53.2	53.2	53.2	54	37.0	0	0	---	0.00	29.988 
22:00	52.8	52.8	52.8	54	36.6	0	0	---	0.00	29.998 
22:05	52.5	52.5	52.5	55	36.8	0	0	---	0.00	29.998 
22:10	52.2	52.2	52.2	56	37.0	0	0	---	0.00	29.998 
22:15	51.9	51.9	51.9	57	37.1	0	0	---	0.00	30.001 
22:20	51.7	51.7	51.7	58	37.4	0	0	---	0.00	30.001 
22:25	51.4	51.4	51.4	59	37.6	0	0	---	0.00	30.001 
22:30	51.3	51.3	51.3	59	37.5	0	0	---	0.00	30.013 
22:35	51.0	51.0	51.0	59	37.2	0	0	---	0.00	30.013 
22:40	50.8	50.8	50.8	61	37.8	0	0	---	0.00	30.013 
22:45	50.5	50.5	50.5	62	38.0	0	0	---	0.00	30.016 
22:50	50.4	50.4	50.4	62	37.9	0	0	---	0.00	30.016 
22:55	50.2	50.2	50.2	63	38.1	0	0	---	0.00	30.016 
23:00	50.1	50.1	50.1	63	38.0	0	0	---	0.00	30.020 
23:05	49.9	49.9	49.9	63	37.8	0	0	---	0.00	30.020 
23:10	49.9	49.9	49.9	63	37.8	0	0	---	0.00	30.020 
23:15	49.9	49.9	49.9	64	38.2	0	0	---	0.00	30.023 
23:20	49.8	49.8	49.8	65	38.5	0	0	---	0.00	30.023 
23:25	49.5	49.5	49.5	64	37.8	0	0	---	0.00	30.023 
23:30	49.4	49.4	49.4	64	37.7	0	0	---	0.00	30.023 
23:35	49.2	49.2	49.2	65	37.9	0	0	---	0.00	30.023 
23:40	49.1	49.1	49.1	65	37.8	0	0	---	0.00	30.023 
23:45	48.9	48.9	48.9	67	38.4	0	0	---	0.00	30.027 
23:50	48.8	48.8	48.8	68	38.7	0	0	---	0.00	30.027 
23:55	48.6	48.6	48.6	67	38.1	0	0	---	0.00	30.027 

CoCoRaHS
IN-AL-39
A2 Web Hosting
Creative Commons License
GoDaddy
search engine by freefind advanced

loaded 2018-11-22 05:41:31 • last modified 2010-11-18 10:43:29
Privacy PolicyDisclaimer
• wx.awcolley.com is powered by PmWiki v.2002016 •
• all content (unless otherwise noted) © 2018 A W Colley